Hines Creek, Canada
Current Conditions -  °F | °C
As of 5:00 PM on Monday 20 Oct 2014 (Local Time) from CYPE Reporting Station
Broken Clouds Broken Clouds  
Wind Chill: 15°   Ceiling: 8000
Heat Index: 15°   Visibility: 15mi
Dew Point:   Wind: 0mph
Humidity: 51%   Direction: NA
Pressure: 29.46"   Gusts: NA
Location:  56.23°N, 118.6°W
Report Text: CYPE 202300Z 00000KT 15SM BKN080 BKN250 15/05 A2946 RMK AC6CI1 SLP994 DENSITY ALT 2800FT
Loading
Personal Weather Stations






























Interactive Weather Map
Tropical Storm Tracking
New forecast layout! Learn more

10-Day Weather Forecast

Advertisements
Track Severe Weather on mobile